FFT weather

Capital City Airport
Frankfort, Kentucky, United States

Public forecast

Using degrees Fahrenheit for public forecast. Weather courtesy of forecast.io.

Current aviation weather report (METAR) for Capital City Airport

Retrieved 2020/06/01 08:53 UTC (8 minutes ago):

KFFT 010853Z AUTO 00000KT 10SM CLR 08/06 A3028 RMK AO2 SLP253 T00780056 53001

Closest aviation forecast (TAF) to Capital City Airport

Closest forecast is Blue Grass Airport, 16.6 nm (30.8 km) ESE. Retrieved 2020/06/01 06:22 UTC (3 hours ago):

TAF KLEX 010520Z 0106/0206 07006KT P6SM SKC FM012000 16006KT P6SM SKC FM012300 VRB04KT P6SM SCT120